Pagrindinis puslapis
METAR-TAF:

METAR-TAF

Oro uostai :

Faßberg, Vokietija

platuma: 52-55N, ilguma: 010-11E, Aukštis: 75 m

Dabartinis oras

Ataskaita buvo paskelbta 1 valandą ir 8 minutes, ne 19:20 UTC
Vėjas 9 kt iš Pietų/Pietvakarių
Temperatūra 9°C
Drėgmė 81%
Slėgis 1005 hPa
Matomumas 10 km arba daugiau
Mažai debesys ne aukštis 5500 ft
Išsisklaidę debesys ne aukštis 13000 ft
Su prošvaistėmis ne aukštis 26000 ft

METAR: ETHS 271920Z 20009KT 9999 FEW055 SCT130 BKN260 09/06 Q1005 BLU+

Laikas: 21:28 (20:28 UTC)

Prognozė

Ataskaita buvo paskelbta 6 valandos ir 8 minutes, ne 14:20 UTC
Prognozė galioja nuo 27 metu 15 UTC su 27 metu 24 UTC
Vėjas 8 kt iš Pietų/Pietvakarių
Matomumas 10 km arba daugiau
Su prošvaistėmis ne aukštis 6000 ft

TAF: ETHS 271420Z 2715/2724 20008KT 9999 NSW BKN060

Orai ataskaitas ir orų prognozės (METAR, TAF).

turimą stotys yra geltonos ir raudonos taškus žemėlapyje.

Perkelti pele per norėdami pamatyti stoties vardą.

Tada spustelėkite, norėdami matyti oro stebėjimo ir prognozės.

Norėdami pakeisti žemėlapį: spustelėkite ant žalios mygtukų su juodo kryžiaus žemyn,; žalią mygtuką su brūkšneliu, jei norite nutolinti; arba žalių rodyklių gretimoms žemėlapius.


METAR-TAF: